sensor_id;sensor_type;location;lat;lon;timestamp;temperature;humidity
73780;SHT30;62093;37.614;15.072;2023-04-30T00:01:19;18.83;58.20
73780;SHT30;62093;37.614;15.072;2023-04-30T00:03:46;18.84;58.21
73780;SHT30;62093;37.614;15.072;2023-04-30T00:06:12;18.83;58.24
73780;SHT30;62093;37.614;15.072;2023-04-30T00:08:38;18.81;58.25
73780;SHT30;62093;37.614;15.072;2023-04-30T00:11:04;18.81;58.14
73780;SHT30;62093;37.614;15.072;2023-04-30T00:13:31;18.83;58.32
73780;SHT30;62093;37.614;15.072;2023-04-30T00:15:57;18.83;58.29
73780;SHT30;62093;37.614;15.072;2023-04-30T00:18:23;18.83;58.27
73780;SHT30;62093;37.614;15.072;2023-04-30T00:20:49;18.79;58.14
73780;SHT30;62093;37.614;15.072;2023-04-30T00:23:17;18.83;58.29
73780;SHT30;62093;37.614;15.072;2023-04-30T00:25:43;18.79;58.23
73780;SHT30;62093;37.614;15.072;2023-04-30T00:28:09;18.79;58.25
73780;SHT30;62093;37.614;15.072;2023-04-30T00:30:35;18.79;58.16
73780;SHT30;62093;37.614;15.072;2023-04-30T00:33:01;18.83;58.32
73780;SHT30;62093;37.614;15.072;2023-04-30T00:35:28;18.81;58.28
73780;SHT30;62093;37.614;15.072;2023-04-30T00:37:54;18.81;58.40
73780;SHT30;62093;37.614;15.072;2023-04-30T00:40:20;18.79;58.36
73780;SHT30;62093;37.614;15.072;2023-04-30T00:42:46;18.79;58.30
73780;SHT30;62093;37.614;15.072;2023-04-30T00:45:13;18.79;58.34
73780;SHT30;62093;37.614;15.072;2023-04-30T00:47:40;18.83;58.35
73780;SHT30;62093;37.614;15.072;2023-04-30T00:50:06;18.81;58.37
73780;SHT30;62093;37.614;15.072;2023-04-30T00:52:34;18.79;58.55
73780;SHT30;62093;37.614;15.072;2023-04-30T00:55:00;18.78;58.38
73780;SHT30;62093;37.614;15.072;2023-04-30T00:57:27;18.78;58.47
73780;SHT30;62093;37.614;15.072;2023-04-30T00:59:53;18.79;58.40
73780;SHT30;62093;37.614;15.072;2023-04-30T01:02:20;18.76;58.39
73780;SHT30;62093;37.614;15.072;2023-04-30T01:04:49;18.75;58.42
73780;SHT30;62093;37.614;15.072;2023-04-30T01:07:15;18.78;58.45
73780;SHT30;62093;37.614;15.072;2023-04-30T01:09:41;18.78;58.39
73780;SHT30;62093;37.614;15.072;2023-04-30T01:12:14;18.74;58.41
73780;SHT30;62093;37.614;15.072;2023-04-30T01:17:35;18.76;58.37
73780;SHT30;62093;37.614;15.072;2023-04-30T01:20:05;18.76;58.49
73780;SHT30;62093;37.614;15.072;2023-04-30T01:28:13;18.75;58.49
73780;SHT30;62093;37.614;15.072;2023-04-30T01:30:42;18.75;58.47
73780;SHT30;62093;37.614;15.072;2023-04-30T01:33:12;18.74;58.53
73780;SHT30;62093;37.614;15.072;2023-04-30T01:41:41;18.74;58.60
73780;SHT30;62093;37.614;15.072;2023-04-30T01:47:06;18.71;58.63
73780;SHT30;62093;37.614;15.072;2023-04-30T01:49:49;18.72;58.67
73780;SHT30;62093;37.614;15.072;2023-04-30T01:52:21;18.72;58.67
73780;SHT30;62093;37.614;15.072;2023-04-30T01:55:09;18.71;58.59
73780;SHT30;62093;37.614;15.072;2023-04-30T01:57:39;18.71;58.54
73780;SHT30;62093;37.614;15.072;2023-04-30T02:00:07;18.71;58.70
73780;SHT30;62093;37.614;15.072;2023-04-30T02:02:39;18.68;58.54
73780;SHT30;62093;37.614;15.072;2023-04-30T02:05:05;18.71;58.67
73780;SHT30;62093;37.614;15.072;2023-04-30T02:07:50;18.69;58.55
73780;SHT30;62093;37.614;15.072;2023-04-30T02:10:18;18.69;58.59
73780;SHT30;62093;37.614;15.072;2023-04-30T02:12:44;18.68;58.63
73780;SHT30;62093;37.614;15.072;2023-04-30T02:15:10;18.69;58.72
73780;SHT30;62093;37.614;15.072;2023-04-30T02:17:39;18.68;58.63
73780;SHT30;62093;37.614;15.072;2023-04-30T02:20:06;18.68;58.65
73780;SHT30;62093;37.614;15.072;2023-04-30T02:22:33;18.68;58.79
73780;SHT30;62093;37.614;15.072;2023-04-30T02:25:00;18.68;58.74
73780;SHT30;62093;37.614;15.072;2023-04-30T02:27:29;18.67;58.78
73780;SHT30;62093;37.614;15.072;2023-04-30T02:29:56;18.67;58.73
73780;SHT30;62093;37.614;15.072;2023-04-30T02:32:22;18.68;58.70
73780;SHT30;62093;37.614;15.072;2023-04-30T02:34:48;18.65;58.79
73780;SHT30;62093;37.614;15.072;2023-04-30T02:37:15;18.65;58.63
73780;SHT30;62093;37.614;15.072;2023-04-30T02:39:41;18.67;58.84
73780;SHT30;62093;37.614;15.072;2023-04-30T02:42:07;18.68;58.94
73780;SHT30;62093;37.614;15.072;2023-04-30T02:44:33;18.65;58.85
73780;SHT30;62093;37.614;15.072;2023-04-30T02:47:00;18.64;58.95
73780;SHT30;62093;37.614;15.072;2023-04-30T02:49:27;18.65;58.86
73780;SHT30;62093;37.614;15.072;2023-04-30T02:51:54;18.64;58.83
73780;SHT30;62093;37.614;15.072;2023-04-30T02:54:20;18.64;58.82
73780;SHT30;62093;37.614;15.072;2023-04-30T02:56:48;18.64;58.96
73780;SHT30;62093;37.614;15.072;2023-04-30T02:59:14;18.64;58.78
73780;SHT30;62093;37.614;15.072;2023-04-30T03:01:40;18.64;58.91
73780;SHT30;62093;37.614;15.072;2023-04-30T03:04:06;18.63;58.92
73780;SHT30;62093;37.614;15.072;2023-04-30T03:06:33;18.65;58.92
73780;SHT30;62093;37.614;15.072;2023-04-30T03:08:59;18.65;58.99
73780;SHT30;62093;37.614;15.072;2023-04-30T03:11:26;18.65;58.92
73780;SHT30;62093;37.614;15.072;2023-04-30T03:13:52;18.64;58.89
73780;SHT30;62093;37.614;15.072;2023-04-30T03:16:20;18.64;58.83
73780;SHT30;62093;37.614;15.072;2023-04-30T03:18:47;18.64;58.80
73780;SHT30;62093;37.614;15.072;2023-04-30T03:21:14;18.64;58.56
73780;SHT30;62093;37.614;15.072;2023-04-30T03:23:40;18.64;58.89
73780;SHT30;62093;37.614;15.072;2023-04-30T03:26:06;18.60;58.73
73780;SHT30;62093;37.614;15.072;2023-04-30T03:28:33;18.63;58.73
73780;SHT30;62093;37.614;15.072;2023-04-30T03:31:00;18.63;58.61
73780;SHT30;62093;37.614;15.072;2023-04-30T03:33:30;18.61;58.78
73780;SHT30;62093;37.614;15.072;2023-04-30T03:35:57;18.63;58.50
73780;SHT30;62093;37.614;15.072;2023-04-30T03:38:24;18.63;58.82
73780;SHT30;62093;37.614;15.072;2023-04-30T03:40:50;18.64;58.73
73780;SHT30;62093;37.614;15.072;2023-04-30T03:43:16;18.63;58.64
73780;SHT30;62093;37.614;15.072;2023-04-30T03:45:43;18.64;58.68
73780;SHT30;62093;37.614;15.072;2023-04-30T03:48:09;18.64;58.80
73780;SHT30;62093;37.614;15.072;2023-04-30T03:50:35;18.63;58.87
73780;SHT30;62093;37.614;15.072;2023-04-30T03:53:01;18.63;58.65
73780;SHT30;62093;37.614;15.072;2023-04-30T03:55:27;18.64;58.75
73780;SHT30;62093;37.614;15.072;2023-04-30T03:57:53;18.64;58.74
73780;SHT30;62093;37.614;15.072;2023-04-30T04:00:20;18.64;58.87
73780;SHT30;62093;37.614;15.072;2023-04-30T04:02:50;18.64;58.74
73780;SHT30;62093;37.614;15.072;2023-04-30T04:05:16;18.64;58.75
73780;SHT30;62093;37.614;15.072;2023-04-30T04:07:44;18.65;58.94
73780;SHT30;62093;37.614;15.072;2023-04-30T04:10:10;18.64;58.78
73780;SHT30;62093;37.614;15.072;2023-04-30T04:12:36;18.61;58.97
73780;SHT30;62093;37.614;15.072;2023-04-30T04:15:03;18.64;58.98
73780;SHT30;62093;37.614;15.072;2023-04-30T04:17:30;18.64;58.82
73780;SHT30;62093;37.614;15.072;2023-04-30T04:19:56;18.64;59.04
73780;SHT30;62093;37.614;15.072;2023-04-30T04:22:22;18.63;58.98
73780;SHT30;62093;37.614;15.072;2023-04-30T04:24:48;18.61;58.90
73780;SHT30;62093;37.614;15.072;2023-04-30T04:27:19;18.61;58.98
73780;SHT30;62093;37.614;15.072;2023-04-30T04:29:45;18.61;58.99
73780;SHT30;62093;37.614;15.072;2023-04-30T04:32:13;18.63;58.87
73780;SHT30;62093;37.614;15.072;2023-04-30T04:34:41;18.61;58.98
73780;SHT30;62093;37.614;15.072;2023-04-30T04:37:08;18.61;59.04
73780;SHT30;62093;37.614;15.072;2023-04-30T04:39:34;18.61;58.98
73780;SHT30;62093;37.614;15.072;2023-04-30T04:42:02;18.61;59.04
73780;SHT30;62093;37.614;15.072;2023-04-30T04:44:30;18.64;58.97
73780;SHT30;62093;37.614;15.072;2023-04-30T04:46:57;18.60;59.05
73780;SHT30;62093;37.614;15.072;2023-04-30T04:49:23;18.61;58.91
73780;SHT30;62093;37.614;15.072;2023-04-30T04:51:50;18.60;59.10
73780;SHT30;62093;37.614;15.072;2023-04-30T04:54:16;18.60;59.04
73780;SHT30;62093;37.614;15.072;2023-04-30T04:56:42;18.60;59.04
73780;SHT30;62093;37.614;15.072;2023-04-30T04:59:08;18.63;59.05
73780;SHT30;62093;37.614;15.072;2023-04-30T05:01:34;18.63;59.08
73780;SHT30;62093;37.614;15.072;2023-04-30T05:04:01;18.60;59.08
73780;SHT30;62093;37.614;15.072;2023-04-30T05:06:26;18.61;59.03
73780;SHT30;62093;37.614;15.072;2023-04-30T05:08:53;18.60;58.82
73780;SHT30;62093;37.614;15.072;2023-04-30T05:11:20;18.58;58.82
73780;SHT30;62093;37.614;15.072;2023-04-30T05:13:46;18.60;58.98
73780;SHT30;62093;37.614;15.072;2023-04-30T05:16:12;18.61;58.86
73780;SHT30;62093;37.614;15.072;2023-04-30T05:18:38;18.58;58.98
73780;SHT30;62093;37.614;15.072;2023-04-30T05:21:04;18.61;59.14
73780;SHT30;62093;37.614;15.072;2023-04-30T05:23:30;18.61;59.17
73780;SHT30;62093;37.614;15.072;2023-04-30T05:25:56;18.61;59.08
73780;SHT30;62093;37.614;15.072;2023-04-30T05:28:22;18.61;59.17
73780;SHT30;62093;37.614;15.072;2023-04-30T05:30:48;18.60;59.04
73780;SHT30;62093;37.614;15.072;2023-04-30T05:33:14;18.60;59.10
73780;SHT30;62093;37.614;15.072;2023-04-30T05:35:40;18.61;59.14
73780;SHT30;62093;37.614;15.072;2023-04-30T05:38:06;18.63;59.08
73780;SHT30;62093;37.614;15.072;2023-04-30T05:40:32;18.61;59.10
73780;SHT30;62093;37.614;15.072;2023-04-30T05:42:58;18.60;59.08
73780;SHT30;62093;37.614;15.072;2023-04-30T05:45:24;18.63;59.15
73780;SHT30;62093;37.614;15.072;2023-04-30T05:47:51;18.63;59.14
73780;SHT30;62093;37.614;15.072;2023-04-30T05:50:17;18.60;59.25
73780;SHT30;62093;37.614;15.072;2023-04-30T05:52:43;18.58;59.28
73780;SHT30;62093;37.614;15.072;2023-04-30T05:55:09;18.61;59.28
73780;SHT30;62093;37.614;15.072;2023-04-30T05:57:36;18.60;59.23
73780;SHT30;62093;37.614;15.072;2023-04-30T06:00:02;18.63;59.47
73780;SHT30;62093;37.614;15.072;2023-04-30T06:02:38;18.61;59.32
73780;SHT30;62093;37.614;15.072;2023-04-30T06:05:05;18.61;59.29
73780;SHT30;62093;37.614;15.072;2023-04-30T06:07:32;18.63;59.31
73780;SHT30;62093;37.614;15.072;2023-04-30T06:09:58;18.64;59.23
73780;SHT30;62093;37.614;15.072;2023-04-30T06:12:24;18.64;59.28
73780;SHT30;62093;37.614;15.072;2023-04-30T06:14:51;18.63;59.28
73780;SHT30;62093;37.614;15.072;2023-04-30T06:17:17;18.64;59.31
73780;SHT30;62093;37.614;15.072;2023-04-30T06:19:43;18.61;59.28
73780;SHT30;62093;37.614;15.072;2023-04-30T06:22:09;18.63;59.25
73780;SHT30;62093;37.614;15.072;2023-04-30T06:24:35;18.64;59.31
73780;SHT30;62093;37.614;15.072;2023-04-30T06:27:01;18.63;59.32
73780;SHT30;62093;37.614;15.072;2023-04-30T06:29:27;18.65;59.35
73780;SHT30;62093;37.614;15.072;2023-04-30T06:31:54;18.64;59.31
73780;SHT30;62093;37.614;15.072;2023-04-30T06:34:20;18.65;59.20
73780;SHT30;62093;37.614;15.072;2023-04-30T06:36:46;18.65;59.15
73780;SHT30;62093;37.614;15.072;2023-04-30T06:39:15;18.65;59.30
73780;SHT30;62093;37.614;15.072;2023-04-30T06:41:41;18.67;59.09
73780;SHT30;62093;37.614;15.072;2023-04-30T06:44:09;18.65;59.18
73780;SHT30;62093;37.614;15.072;2023-04-30T06:46:35;18.67;59.18
73780;SHT30;62093;37.614;15.072;2023-04-30T06:49:01;18.67;59.15
73780;SHT30;62093;37.614;15.072;2023-04-30T06:51:27;18.67;59.22
73780;SHT30;62093;37.614;15.072;2023-04-30T06:53:53;18.67;58.87
73780;SHT30;62093;37.614;15.072;2023-04-30T06:56:19;18.65;59.10
73780;SHT30;62093;37.614;15.072;2023-04-30T06:58:46;18.68;59.15
73780;SHT30;62093;37.614;15.072;2023-04-30T07:01:14;18.69;59.04
73780;SHT30;62093;37.614;15.072;2023-04-30T07:03:41;18.69;59.12
73780;SHT30;62093;37.614;15.072;2023-04-30T07:06:07;18.68;59.11
73780;SHT30;62093;37.614;15.072;2023-04-30T07:08:33;18.69;59.16
73780;SHT30;62093;37.614;15.072;2023-04-30T07:10:59;18.71;59.04
73780;SHT30;62093;37.614;15.072;2023-04-30T07:13:25;18.69;59.12
73780;SHT30;62093;37.614;15.072;2023-04-30T07:15:51;18.69;59.15
73780;SHT30;62093;37.614;15.072;2023-04-30T07:18:17;18.69;59.11
73780;SHT30;62093;37.614;15.072;2023-04-30T07:20:44;18.71;59.15
73780;SHT30;62093;37.614;15.072;2023-04-30T07:23:10;18.72;59.08
73780;SHT30;62093;37.614;15.072;2023-04-30T07:25:36;18.72;59.04
73780;SHT30;62093;37.614;15.072;2023-04-30T07:28:02;18.75;58.97
73780;SHT30;62093;37.614;15.072;2023-04-30T07:30:28;18.71;58.98
73780;SHT30;62093;37.614;15.072;2023-04-30T07:32:55;18.74;59.05
73780;SHT30;62093;37.614;15.072;2023-04-30T07:35:21;18.74;59.02
73780;SHT30;62093;37.614;15.072;2023-04-30T07:37:47;18.74;59.04
73780;SHT30;62093;37.614;15.072;2023-04-30T07:40:13;18.75;59.05
73780;SHT30;62093;37.614;15.072;2023-04-30T07:42:39;18.74;59.08
73780;SHT30;62093;37.614;15.072;2023-04-30T07:45:09;18.72;59.07
73780;SHT30;62093;37.614;15.072;2023-04-30T07:47:37;18.75;59.06
73780;SHT30;62093;37.614;15.072;2023-04-30T07:50:04;18.74;59.06
73780;SHT30;62093;37.614;15.072;2023-04-30T07:52:30;18.76;59.10
73780;SHT30;62093;37.614;15.072;2023-04-30T07:54:56;18.75;59.08
73780;SHT30;62093;37.614;15.072;2023-04-30T07:57:23;18.75;59.10
73780;SHT30;62093;37.614;15.072;2023-04-30T07:59:52;18.76;59.15
73780;SHT30;62093;37.614;15.072;2023-04-30T08:02:18;18.79;59.18
73780;SHT30;62093;37.614;15.072;2023-04-30T08:04:45;18.78;59.12
73780;SHT30;62093;37.614;15.072;2023-04-30T08:07:11;18.81;59.14
73780;SHT30;62093;37.614;15.072;2023-04-30T08:09:37;18.79;59.16
73780;SHT30;62093;37.614;15.072;2023-04-30T08:12:04;18.81;59.16
73780;SHT30;62093;37.614;15.072;2023-04-30T08:14:31;18.81;59.17
73780;SHT30;62093;37.614;15.072;2023-04-30T08:16:57;18.83;59.14
73780;SHT30;62093;37.614;15.072;2023-04-30T08:19:25;18.83;59.14
73780;SHT30;62093;37.614;15.072;2023-04-30T08:21:51;18.84;59.15
73780;SHT30;62093;37.614;15.072;2023-04-30T08:24:17;18.85;59.14
73780;SHT30;62093;37.614;15.072;2023-04-30T08:26:43;18.85;59.17
73780;SHT30;62093;37.614;15.072;2023-04-30T08:29:09;18.85;59.17
73780;SHT30;62093;37.614;15.072;2023-04-30T08:31:35;18.87;59.13
73780;SHT30;62093;37.614;15.072;2023-04-30T08:34:01;18.87;59.13
73780;SHT30;62093;37.614;15.072;2023-04-30T08:36:27;18.88;59.12
73780;SHT30;62093;37.614;15.072;2023-04-30T08:38:54;18.84;59.15
73780;SHT30;62093;37.614;15.072;2023-04-30T08:41:25;18.88;59.10
73780;SHT30;62093;37.614;15.072;2023-04-30T08:43:52;18.88;59.10
73780;SHT30;62093;37.614;15.072;2023-04-30T08:46:19;18.91;59.10
73780;SHT30;62093;37.614;15.072;2023-04-30T08:48:46;18.89;59.14
73780;SHT30;62093;37.614;15.072;2023-04-30T08:51:15;18.88;59.13
73780;SHT30;62093;37.614;15.072;2023-04-30T08:53:41;18.88;59.13
73780;SHT30;62093;37.614;15.072;2023-04-30T08:56:09;18.89;59.14
73780;SHT30;62093;37.614;15.072;2023-04-30T08:58:36;18.92;59.15
73780;SHT30;62093;37.614;15.072;2023-04-30T09:01:04;18.91;59.14
73780;SHT30;62093;37.614;15.072;2023-04-30T09:03:31;18.91;59.12
73780;SHT30;62093;37.614;15.072;2023-04-30T09:05:57;18.89;59.12
73780;SHT30;62093;37.614;15.072;2023-04-30T09:08:41;18.89;59.14
73780;SHT30;62093;37.614;15.072;2023-04-30T09:11:26;18.91;59.10
73780;SHT30;62093;37.614;15.072;2023-04-30T09:14:00;18.92;59.07
73780;SHT30;62093;37.614;15.072;2023-04-30T09:16:28;18.92;59.12
73780;SHT30;62093;37.614;15.072;2023-04-30T09:18:58;18.91;59.10
73780;SHT30;62093;37.614;15.072;2023-04-30T09:21:31;18.91;59.11
73780;SHT30;62093;37.614;15.072;2023-04-30T09:24:00;18.92;59.11
73780;SHT30;62093;37.614;15.072;2023-04-30T09:26:31;18.94;59.10
73780;SHT30;62093;37.614;15.072;2023-04-30T09:28:58;18.94;59.11
73780;SHT30;62093;37.614;15.072;2023-04-30T09:31:25;18.92;59.12
73780;SHT30;62093;37.614;15.072;2023-04-30T09:33:52;18.95;59.13
73780;SHT30;62093;37.614;15.072;2023-04-30T09:36:19;18.94;59.12
73780;SHT30;62093;37.614;15.072;2023-04-30T09:38:45;18.95;59.10
73780;SHT30;62093;37.614;15.072;2023-04-30T09:41:25;18.94;59.07
73780;SHT30;62093;37.614;15.072;2023-04-30T09:43:55;18.95;59.12
73780;SHT30;62093;37.614;15.072;2023-04-30T09:46:30;18.95;59.11
73780;SHT30;62093;37.614;15.072;2023-04-30T09:49:00;18.92;59.09
73780;SHT30;62093;37.614;15.072;2023-04-30T09:51:27;18.95;59.12
73780;SHT30;62093;37.614;15.072;2023-04-30T09:53:53;18.95;59.14
73780;SHT30;62093;37.614;15.072;2023-04-30T09:56:24;18.94;59.10
73780;SHT30;62093;37.614;15.072;2023-04-30T09:58:53;18.96;59.12
73780;SHT30;62093;37.614;15.072;2023-04-30T10:01:21;18.94;59.15
73780;SHT30;62093;37.614;15.072;2023-04-30T10:03:47;18.95;59.17
73780;SHT30;62093;37.614;15.072;2023-04-30T10:06:15;18.92;59.22
73780;SHT30;62093;37.614;15.072;2023-04-30T10:08:48;18.95;59.22
73780;SHT30;62093;37.614;15.072;2023-04-30T10:11:20;18.92;59.20
73780;SHT30;62093;37.614;15.072;2023-04-30T10:13:53;18.91;59.19
73780;SHT30;62093;37.614;15.072;2023-04-30T10:19:20;18.91;59.26
73780;SHT30;62093;37.614;15.072;2023-04-30T10:21:47;18.89;59.46
73780;SHT30;62093;37.614;15.072;2023-04-30T10:24:14;18.92;59.71
73780;SHT30;62093;37.614;15.072;2023-04-30T10:26:44;18.91;59.66
73780;SHT30;62093;37.614;15.072;2023-04-30T10:29:12;18.91;59.84
73780;SHT30;62093;37.614;15.072;2023-04-30T10:31:40;18.91;59.95
73780;SHT30;62093;37.614;15.072;2023-04-30T10:37:26;18.85;60.08
73780;SHT30;62093;37.614;15.072;2023-04-30T10:39:53;18.87;59.97
73780;SHT30;62093;37.614;15.072;2023-04-30T10:42:20;18.84;60.05
73780;SHT30;62093;37.614;15.072;2023-04-30T10:44:46;18.84;60.53
73780;SHT30;62093;37.614;15.072;2023-04-30T10:47:15;18.85;60.63
73780;SHT30;62093;37.614;15.072;2023-04-30T10:49:45;18.79;60.49
73780;SHT30;62093;37.614;15.072;2023-04-30T10:52:13;18.79;61.13
73780;SHT30;62093;37.614;15.072;2023-04-30T10:54:38;18.78;60.53
73780;SHT30;62093;37.614;15.072;2023-04-30T11:02:43;18.72;60.79
73780;SHT30;62093;37.614;15.072;2023-04-30T11:05:11;18.69;60.48
73780;SHT30;62093;37.614;15.072;2023-04-30T11:07:55;18.68;60.95
73780;SHT30;62093;37.614;15.072;2023-04-30T11:10:22;18.69;60.62
73780;SHT30;62093;37.614;15.072;2023-04-30T11:12:53;18.67;61.22
73780;SHT30;62093;37.614;15.072;2023-04-30T11:15:40;18.67;60.99
73780;SHT30;62093;37.614;15.072;2023-04-30T11:18:07;18.61;60.87
73780;SHT30;62093;37.614;15.072;2023-04-30T11:20:39;18.60;60.80
73780;SHT30;62093;37.614;15.072;2023-04-30T11:23:14;18.58;61.01
73780;SHT30;62093;37.614;15.072;2023-04-30T11:25:47;18.60;61.10
73780;SHT30;62093;37.614;15.072;2023-04-30T11:28:14;18.57;61.24
73780;SHT30;62093;37.614;15.072;2023-04-30T11:30:49;18.55;61.11
73780;SHT30;62093;37.614;15.072;2023-04-30T11:33:16;18.55;61.30
73780;SHT30;62093;37.614;15.072;2023-04-30T11:35:43;18.51;61.38
73780;SHT30;62093;37.614;15.072;2023-04-30T11:38:11;18.55;60.94
73780;SHT30;62093;37.614;15.072;2023-04-30T11:40:37;18.50;61.13
73780;SHT30;62093;37.614;15.072;2023-04-30T11:43:03;18.50;61.07
73780;SHT30;62093;37.614;15.072;2023-04-30T11:45:29;18.50;61.12
73780;SHT30;62093;37.614;15.072;2023-04-30T11:47:56;18.48;61.10
73780;SHT30;62093;37.614;15.072;2023-04-30T11:50:25;18.47;61.07
73780;SHT30;62093;37.614;15.072;2023-04-30T11:52:56;18.45;61.09
73780;SHT30;62093;37.614;15.072;2023-04-30T11:55:24;18.48;61.05
73780;SHT30;62093;37.614;15.072;2023-04-30T11:57:55;18.43;61.09
73780;SHT30;62093;37.614;15.072;2023-04-30T12:00:30;18.44;61.16
73780;SHT30;62093;37.614;15.072;2023-04-30T12:03:01;18.44;61.24
73780;SHT30;62093;37.614;15.072;2023-04-30T12:05:29;18.44;61.40
73780;SHT30;62093;37.614;15.072;2023-04-30T12:10:22;18.40;61.36
73780;SHT30;62093;37.614;15.072;2023-04-30T12:12:49;18.43;61.43
73780;SHT30;62093;37.614;15.072;2023-04-30T12:15:21;18.40;61.47
73780;SHT30;62093;37.614;15.072;2023-04-30T12:17:53;18.38;61.53
73780;SHT30;62093;37.614;15.072;2023-04-30T12:20:20;18.38;61.44
73780;SHT30;62093;37.614;15.072;2023-04-30T12:22:47;18.36;61.46
73780;SHT30;62093;37.614;15.072;2023-04-30T12:25:17;18.34;61.36
73780;SHT30;62093;37.614;15.072;2023-04-30T12:27:48;18.33;61.59
73780;SHT30;62093;37.614;15.072;2023-04-30T12:30:19;18.34;61.50
73780;SHT30;62093;37.614;15.072;2023-04-30T12:32:48;18.33;61.59
73780;SHT30;62093;37.614;15.072;2023-04-30T12:35:21;18.32;61.81
73780;SHT30;62093;37.614;15.072;2023-04-30T12:37:51;18.29;61.63
73780;SHT30;62093;37.614;15.072;2023-04-30T12:40:19;18.33;61.58
73780;SHT30;62093;37.614;15.072;2023-04-30T12:42:46;18.32;62.08
73780;SHT30;62093;37.614;15.072;2023-04-30T12:45:41;18.29;61.90
73780;SHT30;62093;37.614;15.072;2023-04-30T12:48:08;18.29;61.76
73780;SHT30;62093;37.614;15.072;2023-04-30T12:50:34;18.24;61.68
73780;SHT30;62093;37.614;15.072;2023-04-30T12:53:03;18.27;61.72
73780;SHT30;62093;37.614;15.072;2023-04-30T12:55:29;18.24;61.90
73780;SHT30;62093;37.614;15.072;2023-04-30T12:58:09;18.24;62.00
73780;SHT30;62093;37.614;15.072;2023-04-30T13:00:48;18.26;61.90
73780;SHT30;62093;37.614;15.072;2023-04-30T13:03:17;18.24;61.97
73780;SHT30;62093;37.614;15.072;2023-04-30T13:05:50;18.22;61.80
73780;SHT30;62093;37.614;15.072;2023-04-30T13:08:17;18.22;61.83
73780;SHT30;62093;37.614;15.072;2023-04-30T13:10:44;18.22;61.84
73780;SHT30;62093;37.614;15.072;2023-04-30T13:13:12;18.22;61.99
73780;SHT30;62093;37.614;15.072;2023-04-30T13:15:39;18.20;61.90
73780;SHT30;62093;37.614;15.072;2023-04-30T13:18:06;18.20;62.15
73780;SHT30;62093;37.614;15.072;2023-04-30T13:20:35;18.18;62.00
73780;SHT30;62093;37.614;15.072;2023-04-30T13:23:01;18.20;62.06
73780;SHT30;62093;37.614;15.072;2023-04-30T13:25:29;18.18;62.01
73780;SHT30;62093;37.614;15.072;2023-04-30T13:27:55;18.18;61.99
73780;SHT30;62093;37.614;15.072;2023-04-30T13:30:22;18.20;61.98
73780;SHT30;62093;37.614;15.072;2023-04-30T13:32:49;18.17;61.95
73780;SHT30;62093;37.614;15.072;2023-04-30T13:35:17;18.18;62.01
73780;SHT30;62093;37.614;15.072;2023-04-30T13:37:43;18.22;62.11
73780;SHT30;62093;37.614;15.072;2023-04-30T13:40:10;18.20;62.21
73780;SHT30;62093;37.614;15.072;2023-04-30T13:42:37;18.22;62.10
73780;SHT30;62093;37.614;15.072;2023-04-30T13:45:06;18.18;62.18
73780;SHT30;62093;37.614;15.072;2023-04-30T13:47:33;18.18;62.12
73780;SHT30;62093;37.614;15.072;2023-04-30T13:50:01;18.20;62.20
73780;SHT30;62093;37.614;15.072;2023-04-30T13:52:27;18.22;62.14
73780;SHT30;62093;37.614;15.072;2023-04-30T13:54:53;18.18;62.11
73780;SHT30;62093;37.614;15.072;2023-04-30T13:57:19;18.18;62.11
73780;SHT30;62093;37.614;15.072;2023-04-30T13:59:45;18.22;62.12
73780;SHT30;62093;37.614;15.072;2023-04-30T14:02:11;18.22;62.10
73780;SHT30;62093;37.614;15.072;2023-04-30T14:04:37;18.18;62.52
73780;SHT30;62093;37.614;15.072;2023-04-30T14:07:03;18.22;62.20
73780;SHT30;62093;37.614;15.072;2023-04-30T14:09:29;18.20;62.14
73780;SHT30;62093;37.614;15.072;2023-04-30T14:11:56;18.20;62.16
73780;SHT30;62093;37.614;15.072;2023-04-30T14:14:27;18.20;62.35
73780;SHT30;62093;37.614;15.072;2023-04-30T14:16:53;18.18;62.14
73780;SHT30;62093;37.614;15.072;2023-04-30T14:19:22;18.22;62.24
73780;SHT30;62093;37.614;15.072;2023-04-30T14:21:48;18.20;62.19
73780;SHT30;62093;37.614;15.072;2023-04-30T14:24:14;18.20;62.20
73780;SHT30;62093;37.614;15.072;2023-04-30T14:26:41;18.18;62.16
73780;SHT30;62093;37.614;15.072;2023-04-30T14:29:08;18.20;62.21
73780;SHT30;62093;37.614;15.072;2023-04-30T14:31:34;18.20;62.17
73780;SHT30;62093;37.614;15.072;2023-04-30T14:34:01;18.18;62.22
73780;SHT30;62093;37.614;15.072;2023-04-30T14:36:27;18.20;62.15
73780;SHT30;62093;37.614;15.072;2023-04-30T14:38:53;18.18;62.16
73780;SHT30;62093;37.614;15.072;2023-04-30T14:41:19;18.22;62.18
73780;SHT30;62093;37.614;15.072;2023-04-30T14:43:45;18.23;62.14
73780;SHT30;62093;37.614;15.072;2023-04-30T14:46:12;18.23;62.18
73780;SHT30;62093;37.614;15.072;2023-04-30T14:48:38;18.22;62.20
73780;SHT30;62093;37.614;15.072;2023-04-30T14:51:04;18.20;62.25
73780;SHT30;62093;37.614;15.072;2023-04-30T14:53:31;18.20;62.32
73780;SHT30;62093;37.614;15.072;2023-04-30T14:55:57;18.22;62.42
73780;SHT30;62093;37.614;15.072;2023-04-30T14:58:23;18.20;62.26
73780;SHT30;62093;37.614;15.072;2023-04-30T15:00:50;18.23;62.27
73780;SHT30;62093;37.614;15.072;2023-04-30T15:03:16;18.22;62.24
73780;SHT30;62093;37.614;15.072;2023-04-30T15:05:42;18.22;62.34
73780;SHT30;62093;37.614;15.072;2023-04-30T15:08:08;18.23;62.18
73780;SHT30;62093;37.614;15.072;2023-04-30T15:10:34;18.24;62.21
73780;SHT30;62093;37.614;15.072;2023-04-30T15:13:03;18.23;62.33
73780;SHT30;62093;37.614;15.072;2023-04-30T15:15:29;18.24;62.44
73780;SHT30;62093;37.614;15.072;2023-04-30T15:17:56;18.23;62.54
73780;SHT30;62093;37.614;15.072;2023-04-30T15:20:22;18.27;62.78
73780;SHT30;62093;37.614;15.072;2023-04-30T15:22:49;18.24;62.44
73780;SHT30;62093;37.614;15.072;2023-04-30T15:25:16;18.24;62.49
73780;SHT30;62093;37.614;15.072;2023-04-30T15:27:45;18.26;62.54
73780;SHT30;62093;37.614;15.072;2023-04-30T15:30:11;18.23;62.56
73780;SHT30;62093;37.614;15.072;2023-04-30T15:32:37;18.26;62.54
73780;SHT30;62093;37.614;15.072;2023-04-30T15:35:04;18.24;62.55
73780;SHT30;62093;37.614;15.072;2023-04-30T15:37:30;18.23;62.56
73780;SHT30;62093;37.614;15.072;2023-04-30T15:39:56;18.24;62.54
73780;SHT30;62093;37.614;15.072;2023-04-30T15:42:22;18.26;62.56
73780;SHT30;62093;37.614;15.072;2023-04-30T15:44:48;18.26;62.65
73780;SHT30;62093;37.614;15.072;2023-04-30T15:47:14;18.24;62.64
73780;SHT30;62093;37.614;15.072;2023-04-30T15:49:40;18.27;62.64